Erie, MI

4:54 PM EDT on September 27, 2016 (GMT -0400)
South County, Erie, MI | | Change Station

Elev 576 ft 41.76 °N, 83.50 °W | Updated 1 minute ago

Clear
Clear
71.2 °F
Feels Like 76 °F
N
14.0
Wind Variable Wind from WSW
Gusts 18.0 mph

Today
High -- | Low -- °F
--% Chance of Precip.
Yesterday
High -- | Low -- °F
Precip. -- in
Pressure 29.75 in
Visibility 10.0 miles
Clouds Clear
Heat Index 76 °F
Dew Point 37 °F
Humidity 29%
Rainfall 0.00 in
Snow Depth Not available.
7:27 AM 7:21 PM
Waning Crescent, 9% visible
METAR KDUH 272034Z AUTO 26011G19KT 10SM CLR 22/01 A2975 RMK AO2 T02200010
Pressure 29.75 in
Visibility 10.0 miles
Clouds Clear
Heat Index 76 °F
Dew Point 37 °F
Humidity 29%
Rainfall 0.00 in
Snow Depth Not available.
7:27 AM 7:21 PM
Waning Crescent, 9% visible
METAR KDUH 272034Z AUTO 26011G19KT 10SM CLR 22/01 A2975 RMK AO2 T02200010

10-Day Weather Forecast

Almanac

Astronomy

Sep. 27, 2016 Rise Set
Actual Time
Civil Twilight
Nautical Twilight
Astronomical Twilight
Moon
Length of Visible Light
Length of Day
Tomorrow will be .
, % of the Moon is Illuminated

Today's Extremes

State Highs State Lows

Community

WunderPhotos

Upload Photos

1,942,168 photos uploaded!

WunderBlog® & News

Nearby

Air Quality

  Air Quality AQ Index Pollutant
Not available.

Snow Depth

Station Depth Elevation

Earthquake Activity

City Distance Mag. Time & Date
Minimum magnitude displayed is 2.5.

Coastal Water Temperatures

Place Temperature

Stations

Nearby Weather Stations

Station Location Temp. Windchill Dew Point Humidity Wind Precip. Elev Updated Type
                   

Watches & Warnings

There are currently no watches in effect.